sensor_id;sensor_type;location;lat;lon;timestamp;temperature;humidity
22765;DHT22;11549;50.852;3.816;2023-04-01T00:01:06;10.50;99.90
22765;DHT22;11549;50.852;3.816;2023-04-01T00:03:34;10.40;99.90
22765;DHT22;11549;50.852;3.816;2023-04-01T00:06:04;10.40;99.90
22765;DHT22;11549;50.852;3.816;2023-04-01T00:08:32;10.40;99.90
22765;DHT22;11549;50.852;3.816;2023-04-01T00:11:01;10.40;99.90
22765;DHT22;11549;50.852;3.816;2023-04-01T00:13:30;10.50;99.90
22765;DHT22;11549;50.852;3.816;2023-04-01T00:15:59;10.50;99.90
22765;DHT22;11549;50.852;3.816;2023-04-01T00:18:31;10.50;99.90
22765;DHT22;11549;50.852;3.816;2023-04-01T00:20:59;10.50;99.90
22765;DHT22;11549;50.852;3.816;2023-04-01T00:23:27;10.50;99.90
22765;DHT22;11549;50.852;3.816;2023-04-01T00:25:56;10.50;99.90
22765;DHT22;11549;50.852;3.816;2023-04-01T00:28:28;10.50;99.90
22765;DHT22;11549;50.852;3.816;2023-04-01T00:30:56;10.60;99.90
22765;DHT22;11549;50.852;3.816;2023-04-01T00:33:24;10.50;99.90
22765;DHT22;11549;50.852;3.816;2023-04-01T00:35:55;10.60;99.90
22765;DHT22;11549;50.852;3.816;2023-04-01T00:38:24;10.70;99.90
22765;DHT22;11549;50.852;3.816;2023-04-01T00:40:58;10.60;99.90
22765;DHT22;11549;50.852;3.816;2023-04-01T00:43:26;10.70;99.90
22765;DHT22;11549;50.852;3.816;2023-04-01T00:45:55;10.60;99.90
22765;DHT22;11549;50.852;3.816;2023-04-01T00:48:27;10.60;99.90
22765;DHT22;11549;50.852;3.816;2023-04-01T00:51:02;10.70;99.90
22765;DHT22;11549;50.852;3.816;2023-04-01T00:53:34;10.60;99.90
22765;DHT22;11549;50.852;3.816;2023-04-01T00:56:07;10.60;99.90
22765;DHT22;11549;50.852;3.816;2023-04-01T00:58:41;10.50;99.90
22765;DHT22;11549;50.852;3.816;2023-04-01T01:01:10;10.50;99.90
22765;DHT22;11549;50.852;3.816;2023-04-01T01:03:38;10.50;99.90
22765;DHT22;11549;50.852;3.816;2023-04-01T01:06:29;10.50;99.90
22765;DHT22;11549;50.852;3.816;2023-04-01T01:09:18;10.50;99.90
22765;DHT22;11549;50.852;3.816;2023-04-01T01:11:54;10.50;99.90
22765;DHT22;11549;50.852;3.816;2023-04-01T01:14:29;10.50;99.90
22765;DHT22;11549;50.852;3.816;2023-04-01T01:17:06;10.50;99.90
22765;DHT22;11549;50.852;3.816;2023-04-01T01:20:07;10.50;99.90
22765;DHT22;11549;50.852;3.816;2023-04-01T01:22:56;10.50;99.90
22765;DHT22;11549;50.852;3.816;2023-04-01T01:25:34;10.50;99.90
22765;DHT22;11549;50.852;3.816;2023-04-01T01:28:18;10.50;99.90
22765;DHT22;11549;50.852;3.816;2023-04-01T01:30:57;10.50;99.90
22765;DHT22;11549;50.852;3.816;2023-04-01T01:33:46;10.60;99.90
22765;DHT22;11549;50.852;3.816;2023-04-01T01:36:21;10.50;99.90
22765;DHT22;11549;50.852;3.816;2023-04-01T01:38:50;10.60;99.90
22765;DHT22;11549;50.852;3.816;2023-04-01T01:41:20;10.50;99.90
22765;DHT22;11549;50.852;3.816;2023-04-01T01:43:50;10.40;99.90
22765;DHT22;11549;50.852;3.816;2023-04-01T01:46:23;10.30;99.90
22765;DHT22;11549;50.852;3.816;2023-04-01T01:48:53;10.40;99.90
22765;DHT22;11549;50.852;3.816;2023-04-01T01:51:24;10.30;99.90
22765;DHT22;11549;50.852;3.816;2023-04-01T01:53:54;10.30;99.90
22765;DHT22;11549;50.852;3.816;2023-04-01T01:56:26;10.40;99.90
22765;DHT22;11549;50.852;3.816;2023-04-01T01:58:58;10.40;99.90
22765;DHT22;11549;50.852;3.816;2023-04-01T02:01:29;10.30;99.90
22765;DHT22;11549;50.852;3.816;2023-04-01T02:03:58;10.30;99.90
22765;DHT22;11549;50.852;3.816;2023-04-01T02:06:32;10.30;99.90
22765;DHT22;11549;50.852;3.816;2023-04-01T02:09:04;10.30;99.90
22765;DHT22;11549;50.852;3.816;2023-04-01T02:11:36;10.20;99.90
22765;DHT22;11549;50.852;3.816;2023-04-01T02:14:09;10.30;99.90
22765;DHT22;11549;50.852;3.816;2023-04-01T02:16:42;10.30;99.90
22765;DHT22;11549;50.852;3.816;2023-04-01T02:19:13;10.30;99.90
22765;DHT22;11549;50.852;3.816;2023-04-01T02:21:45;10.30;99.90
22765;DHT22;11549;50.852;3.816;2023-04-01T02:24:14;10.30;99.90
22765;DHT22;11549;50.852;3.816;2023-04-01T02:26:45;10.30;99.90
22765;DHT22;11549;50.852;3.816;2023-04-01T02:29:14;10.30;99.90
22765;DHT22;11549;50.852;3.816;2023-04-01T02:31:43;10.30;99.90
22765;DHT22;11549;50.852;3.816;2023-04-01T02:34:12;10.30;99.90
22765;DHT22;11549;50.852;3.816;2023-04-01T02:36:41;10.30;99.90
22765;DHT22;11549;50.852;3.816;2023-04-01T02:39:11;10.20;99.90
22765;DHT22;11549;50.852;3.816;2023-04-01T02:41:39;10.20;99.90
22765;DHT22;11549;50.852;3.816;2023-04-01T02:44:09;10.30;99.90
22765;DHT22;11549;50.852;3.816;2023-04-01T02:46:38;10.30;99.90
22765;DHT22;11549;50.852;3.816;2023-04-01T02:49:07;10.30;99.90
22765;DHT22;11549;50.852;3.816;2023-04-01T02:51:35;10.20;99.90
22765;DHT22;11549;50.852;3.816;2023-04-01T02:54:04;10.20;99.90
22765;DHT22;11549;50.852;3.816;2023-04-01T02:56:34;10.20;99.90
22765;DHT22;11549;50.852;3.816;2023-04-01T02:59:02;10.20;99.90
22765;DHT22;11549;50.852;3.816;2023-04-01T03:01:30;10.20;99.90
22765;DHT22;11549;50.852;3.816;2023-04-01T03:03:59;10.20;99.90
22765;DHT22;11549;50.852;3.816;2023-04-01T03:06:27;10.20;99.90
22765;DHT22;11549;50.852;3.816;2023-04-01T03:08:56;10.20;99.90
22765;DHT22;11549;50.852;3.816;2023-04-01T03:11:24;10.30;99.90
22765;DHT22;11549;50.852;3.816;2023-04-01T03:13:54;10.20;99.90
22765;DHT22;11549;50.852;3.816;2023-04-01T03:16:22;10.20;99.90
22765;DHT22;11549;50.852;3.816;2023-04-01T03:18:51;10.20;99.90
22765;DHT22;11549;50.852;3.816;2023-04-01T03:21:21;10.30;99.90
22765;DHT22;11549;50.852;3.816;2023-04-01T03:23:50;10.30;99.90
22765;DHT22;11549;50.852;3.816;2023-04-01T03:26:19;10.30;99.90
22765;DHT22;11549;50.852;3.816;2023-04-01T03:28:48;10.30;99.90
22765;DHT22;11549;50.852;3.816;2023-04-01T03:31:18;10.30;99.90
22765;DHT22;11549;50.852;3.816;2023-04-01T03:33:49;10.30;99.90
22765;DHT22;11549;50.852;3.816;2023-04-01T03:36:17;10.30;99.90
22765;DHT22;11549;50.852;3.816;2023-04-01T03:38:46;10.40;99.90
22765;DHT22;11549;50.852;3.816;2023-04-01T03:41:16;10.30;99.90
22765;DHT22;11549;50.852;3.816;2023-04-01T03:43:45;10.30;99.90
22765;DHT22;11549;50.852;3.816;2023-04-01T03:46:19;10.20;99.90
22765;DHT22;11549;50.852;3.816;2023-04-01T03:48:47;10.10;99.90
22765;DHT22;11549;50.852;3.816;2023-04-01T03:51:16;10.10;99.90
22765;DHT22;11549;50.852;3.816;2023-04-01T03:53:44;10.20;99.90
22765;DHT22;11549;50.852;3.816;2023-04-01T03:56:12;10.20;99.90
22765;DHT22;11549;50.852;3.816;2023-04-01T03:58:41;10.20;99.90
22765;DHT22;11549;50.852;3.816;2023-04-01T04:01:19;10.20;99.90
22765;DHT22;11549;50.852;3.816;2023-04-01T04:03:48;10.10;99.90
22765;DHT22;11549;50.852;3.816;2023-04-01T04:06:18;10.00;99.90
22765;DHT22;11549;50.852;3.816;2023-04-01T04:08:47;10.00;99.90
22765;DHT22;11549;50.852;3.816;2023-04-01T04:11:16;10.10;99.90
22765;DHT22;11549;50.852;3.816;2023-04-01T04:13:44;10.10;99.90
22765;DHT22;11549;50.852;3.816;2023-04-01T04:16:15;10.10;99.90
22765;DHT22;11549;50.852;3.816;2023-04-01T04:18:45;10.10;99.90
22765;DHT22;11549;50.852;3.816;2023-04-01T04:21:14;10.10;99.90
22765;DHT22;11549;50.852;3.816;2023-04-01T04:23:42;10.10;99.90
22765;DHT22;11549;50.852;3.816;2023-04-01T04:26:13;10.00;99.90
22765;DHT22;11549;50.852;3.816;2023-04-01T04:28:42;10.00;99.90
22765;DHT22;11549;50.852;3.816;2023-04-01T04:31:10;10.10;99.90
22765;DHT22;11549;50.852;3.816;2023-04-01T04:33:39;10.10;99.90
22765;DHT22;11549;50.852;3.816;2023-04-01T04:36:09;10.10;99.90
22765;DHT22;11549;50.852;3.816;2023-04-01T04:38:37;10.00;99.90
22765;DHT22;11549;50.852;3.816;2023-04-01T04:41:09;10.00;99.90
22765;DHT22;11549;50.852;3.816;2023-04-01T04:43:38;10.10;99.90
22765;DHT22;11549;50.852;3.816;2023-04-01T04:46:07;10.10;99.90
22765;DHT22;11549;50.852;3.816;2023-04-01T04:48:36;10.20;99.90
22765;DHT22;11549;50.852;3.816;2023-04-01T04:51:04;10.20;99.90
22765;DHT22;11549;50.852;3.816;2023-04-01T04:53:34;10.10;99.90
22765;DHT22;11549;50.852;3.816;2023-04-01T04:56:03;10.00;99.90
22765;DHT22;11549;50.852;3.816;2023-04-01T04:58:31;10.00;99.90
22765;DHT22;11549;50.852;3.816;2023-04-01T05:01:04;9.90;99.90
22765;DHT22;11549;50.852;3.816;2023-04-01T05:03:32;9.90;99.90
22765;DHT22;11549;50.852;3.816;2023-04-01T05:06:01;9.90;99.90
22765;DHT22;11549;50.852;3.816;2023-04-01T05:08:29;9.90;99.90
22765;DHT22;11549;50.852;3.816;2023-04-01T05:10:59;9.90;99.90
22765;DHT22;11549;50.852;3.816;2023-04-01T05:13:28;9.90;99.90
22765;DHT22;11549;50.852;3.816;2023-04-01T05:15:56;9.90;99.90
22765;DHT22;11549;50.852;3.816;2023-04-01T05:18:24;9.90;99.90
22765;DHT22;11549;50.852;3.816;2023-04-01T05:20:54;9.80;99.90
22765;DHT22;11549;50.852;3.816;2023-04-01T05:23:22;9.90;99.90
22765;DHT22;11549;50.852;3.816;2023-04-01T05:25:51;9.90;99.90
22765;DHT22;11549;50.852;3.816;2023-04-01T05:28:21;9.90;99.90
22765;DHT22;11549;50.852;3.816;2023-04-01T05:30:49;9.90;99.90
22765;DHT22;11549;50.852;3.816;2023-04-01T05:33:18;9.80;99.90
22765;DHT22;11549;50.852;3.816;2023-04-01T05:35:46;9.80;99.90
22765;DHT22;11549;50.852;3.816;2023-04-01T05:38:15;9.90;99.90
22765;DHT22;11549;50.852;3.816;2023-04-01T05:40:43;9.90;99.90
22765;DHT22;11549;50.852;3.816;2023-04-01T05:43:13;9.80;99.90
22765;DHT22;11549;50.852;3.816;2023-04-01T05:45:43;9.80;99.90
22765;DHT22;11549;50.852;3.816;2023-04-01T05:48:11;9.90;99.90
22765;DHT22;11549;50.852;3.816;2023-04-01T05:50:40;9.90;99.90
22765;DHT22;11549;50.852;3.816;2023-04-01T05:53:09;9.90;99.90
22765;DHT22;11549;50.852;3.816;2023-04-01T05:55:37;10.00;99.90
22765;DHT22;11549;50.852;3.816;2023-04-01T05:58:06;10.00;99.90
22765;DHT22;11549;50.852;3.816;2023-04-01T06:00:34;10.00;99.90
22765;DHT22;11549;50.852;3.816;2023-04-01T06:03:04;9.90;99.90
22765;DHT22;11549;50.852;3.816;2023-04-01T06:05:38;9.90;99.90
22765;DHT22;11549;50.852;3.816;2023-04-01T06:08:12;9.90;99.90
22765;DHT22;11549;50.852;3.816;2023-04-01T06:10:57;9.80;99.90
22765;DHT22;11549;50.852;3.816;2023-04-01T06:13:39;9.80;99.90
22765;DHT22;11549;50.852;3.816;2023-04-01T06:16:19;9.70;99.90
22765;DHT22;11549;50.852;3.816;2023-04-01T06:19:06;9.80;99.90
22765;DHT22;11549;50.852;3.816;2023-04-01T06:21:54;9.80;99.90
22765;DHT22;11549;50.852;3.816;2023-04-01T06:24:55;9.90;99.90
22765;DHT22;11549;50.852;3.816;2023-04-01T06:27:38;10.00;99.90
22765;DHT22;11549;50.852;3.816;2023-04-01T06:30:24;10.10;99.90
22765;DHT22;11549;50.852;3.816;2023-04-01T06:33:05;10.10;99.90
22765;DHT22;11549;50.852;3.816;2023-04-01T06:35:49;10.00;99.90
22765;DHT22;11549;50.852;3.816;2023-04-01T06:38:30;10.10;99.90
22765;DHT22;11549;50.852;3.816;2023-04-01T06:41:19;10.00;99.90
22765;DHT22;11549;50.852;3.816;2023-04-01T06:43:59;10.00;99.90
22765;DHT22;11549;50.852;3.816;2023-04-01T06:46:40;10.00;99.90
22765;DHT22;11549;50.852;3.816;2023-04-01T06:49:30;10.10;99.90
22765;DHT22;11549;50.852;3.816;2023-04-01T06:52:11;10.10;99.90
22765;DHT22;11549;50.852;3.816;2023-04-01T06:54:45;10.10;99.90
22765;DHT22;11549;50.852;3.816;2023-04-01T06:57:21;10.00;99.90
22765;DHT22;11549;50.852;3.816;2023-04-01T06:59:54;10.10;99.90
22765;DHT22;11549;50.852;3.816;2023-04-01T07:02:31;10.10;99.90
22765;DHT22;11549;50.852;3.816;2023-04-01T07:05:01;10.10;99.90
22765;DHT22;11549;50.852;3.816;2023-04-01T07:07:35;10.20;99.90
22765;DHT22;11549;50.852;3.816;2023-04-01T07:10:13;10.20;99.90
22765;DHT22;11549;50.852;3.816;2023-04-01T07:12:46;10.10;99.90
22765;DHT22;11549;50.852;3.816;2023-04-01T07:15:17;10.10;99.90
22765;DHT22;11549;50.852;3.816;2023-04-01T07:17:50;10.00;99.90
22765;DHT22;11549;50.852;3.816;2023-04-01T07:20:23;9.90;99.90
22765;DHT22;11549;50.852;3.816;2023-04-01T07:22:58;9.90;99.90
22765;DHT22;11549;50.852;3.816;2023-04-01T07:25:31;10.00;99.90
22765;DHT22;11549;50.852;3.816;2023-04-01T07:28:04;10.10;99.90
22765;DHT22;11549;50.852;3.816;2023-04-01T07:30:49;10.00;99.90
22765;DHT22;11549;50.852;3.816;2023-04-01T07:33:24;10.00;99.90
22765;DHT22;11549;50.852;3.816;2023-04-01T07:35:58;10.10;99.90
22765;DHT22;11549;50.852;3.816;2023-04-01T07:38:39;10.20;99.90
22765;DHT22;11549;50.852;3.816;2023-04-01T07:41:15;10.20;99.90
22765;DHT22;11549;50.852;3.816;2023-04-01T07:43:56;10.40;99.90
22765;DHT22;11549;50.852;3.816;2023-04-01T07:46:46;10.40;99.90
22765;DHT22;11549;50.852;3.816;2023-04-01T07:49:22;10.30;99.90
22765;DHT22;11549;50.852;3.816;2023-04-01T07:51:58;10.40;99.90
22765;DHT22;11549;50.852;3.816;2023-04-01T07:54:33;10.50;99.90
22765;DHT22;11549;50.852;3.816;2023-04-01T07:57:05;10.60;99.90
22765;DHT22;11549;50.852;3.816;2023-04-01T07:59:41;10.60;99.90
22765;DHT22;11549;50.852;3.816;2023-04-01T08:02:22;10.50;99.90
22765;DHT22;11549;50.852;3.816;2023-04-01T08:05:03;10.50;99.90
22765;DHT22;11549;50.852;3.816;2023-04-01T08:07:40;10.50;99.90
22765;DHT22;11549;50.852;3.816;2023-04-01T08:10:19;10.60;99.90
22765;DHT22;11549;50.852;3.816;2023-04-01T08:13:00;10.70;99.90
22765;DHT22;11549;50.852;3.816;2023-04-01T08:15:36;10.50;99.90
22765;DHT22;11549;50.852;3.816;2023-04-01T08:18:14;10.50;99.90
22765;DHT22;11549;50.852;3.816;2023-04-01T08:20:47;10.60;99.90
22765;DHT22;11549;50.852;3.816;2023-04-01T08:23:19;10.60;99.90
22765;DHT22;11549;50.852;3.816;2023-04-01T08:25:54;10.50;99.90
22765;DHT22;11549;50.852;3.816;2023-04-01T08:28:27;10.50;99.90
22765;DHT22;11549;50.852;3.816;2023-04-01T08:31:03;10.50;99.90
22765;DHT22;11549;50.852;3.816;2023-04-01T08:33:32;10.50;99.90
22765;DHT22;11549;50.852;3.816;2023-04-01T08:36:05;10.50;99.90
22765;DHT22;11549;50.852;3.816;2023-04-01T08:38:39;10.60;99.90
22765;DHT22;11549;50.852;3.816;2023-04-01T08:47:24;10.80;99.90
22765;DHT22;11549;50.852;3.816;2023-04-01T08:53:03;10.70;99.90
22765;DHT22;11549;50.852;3.816;2023-04-01T08:55:40;10.70;99.90
22765;DHT22;11549;50.852;3.816;2023-04-01T08:58:31;10.70;99.90
22765;DHT22;11549;50.852;3.816;2023-04-01T09:01:14;10.70;99.90
22765;DHT22;11549;50.852;3.816;2023-04-01T09:04:04;10.70;99.90
22765;DHT22;11549;50.852;3.816;2023-04-01T09:06:40;10.90;99.90
22765;DHT22;11549;50.852;3.816;2023-04-01T09:09:37;10.90;99.90
22765;DHT22;11549;50.852;3.816;2023-04-01T09:12:35;11.00;99.90
22765;DHT22;11549;50.852;3.816;2023-04-01T09:15:35;11.00;99.90
22765;DHT22;11549;50.852;3.816;2023-04-01T09:21:32;11.00;99.90
22765;DHT22;11549;50.852;3.816;2023-04-01T09:24:31;11.00;99.90
22765;DHT22;11549;50.852;3.816;2023-04-01T09:27:13;11.00;99.90
22765;DHT22;11549;50.852;3.816;2023-04-01T09:36:07;11.00;99.90
22765;DHT22;11549;50.852;3.816;2023-04-01T09:38:53;11.10;99.90
22765;DHT22;11549;50.852;3.816;2023-04-01T09:41:29;11.10;99.90
22765;DHT22;11549;50.852;3.816;2023-04-01T09:44:03;11.10;99.90
22765;DHT22;11549;50.852;3.816;2023-04-01T09:46:48;11.10;99.90
22765;DHT22;11549;50.852;3.816;2023-04-01T09:49:54;11.10;99.90
22765;DHT22;11549;50.852;3.816;2023-04-01T09:52:32;11.10;99.90
22765;DHT22;11549;50.852;3.816;2023-04-01T09:55:21;11.20;99.90
22765;DHT22;11549;50.852;3.816;2023-04-01T10:07:28;11.50;99.90
22765;DHT22;11549;50.852;3.816;2023-04-01T10:10:32;11.50;99.90
22765;DHT22;11549;50.852;3.816;2023-04-01T10:16:34;11.70;99.90
22765;DHT22;11549;50.852;3.816;2023-04-01T10:25:56;11.50;99.90
22765;DHT22;11549;50.852;3.816;2023-04-01T10:28:50;11.50;99.90
22765;DHT22;11549;50.852;3.816;2023-04-01T10:31:41;11.60;99.90
22765;DHT22;11549;50.852;3.816;2023-04-01T10:37:29;11.50;99.90
22765;DHT22;11549;50.852;3.816;2023-04-01T10:40:31;11.30;99.90
22765;DHT22;11549;50.852;3.816;2023-04-01T10:49:37;11.40;99.90
22765;DHT22;11549;50.852;3.816;2023-04-01T10:55:36;11.30;99.90
22765;DHT22;11549;50.852;3.816;2023-04-01T10:58:24;11.40;99.90
22765;DHT22;11549;50.852;3.816;2023-04-01T11:07:42;11.50;99.90
22765;DHT22;11549;50.852;3.816;2023-04-01T11:10:56;11.50;99.90
22765;DHT22;11549;50.852;3.816;2023-04-01T11:25:57;11.70;99.90
22765;DHT22;11549;50.852;3.816;2023-04-01T11:28:50;11.70;99.90
22765;DHT22;11549;50.852;3.816;2023-04-01T11:31:33;11.70;99.90
22765;DHT22;11549;50.852;3.816;2023-04-01T11:34:13;11.70;99.90
22765;DHT22;11549;50.852;3.816;2023-04-01T11:36:52;11.50;99.90
22765;DHT22;11549;50.852;3.816;2023-04-01T11:39:32;11.40;99.90
22765;DHT22;11549;50.852;3.816;2023-04-01T11:42:13;11.40;99.90
22765;DHT22;11549;50.852;3.816;2023-04-01T11:44:47;11.40;99.90
22765;DHT22;11549;50.852;3.816;2023-04-01T11:47:49;11.30;99.90
22765;DHT22;11549;50.852;3.816;2023-04-01T11:50:26;11.40;99.90
22765;DHT22;11549;50.852;3.816;2023-04-01T11:53:16;11.30;99.90
22765;DHT22;11549;50.852;3.816;2023-04-01T11:55:57;11.20;99.90
22765;DHT22;11549;50.852;3.816;2023-04-01T12:01:29;11.30;99.90
22765;DHT22;11549;50.852;3.816;2023-04-01T12:04:40;11.10;99.90
22765;DHT22;11549;50.852;3.816;2023-04-01T12:07:18;11.20;99.90
22765;DHT22;11549;50.852;3.816;2023-04-01T12:09:57;11.00;99.90
22765;DHT22;11549;50.852;3.816;2023-04-01T12:12:35;10.90;99.90
22765;DHT22;11549;50.852;3.816;2023-04-01T12:15:29;10.90;99.90
22765;DHT22;11549;50.852;3.816;2023-04-01T12:18:05;11.00;99.90
22765;DHT22;11549;50.852;3.816;2023-04-01T12:20:46;11.00;99.90
22765;DHT22;11549;50.852;3.816;2023-04-01T12:23:36;11.00;99.90
22765;DHT22;11549;50.852;3.816;2023-04-01T12:26:25;11.00;99.90
22765;DHT22;11549;50.852;3.816;2023-04-01T12:29:15;11.00;99.90
22765;DHT22;11549;50.852;3.816;2023-04-01T12:31:55;10.90;99.90
22765;DHT22;11549;50.852;3.816;2023-04-01T12:34:49;11.00;99.90
22765;DHT22;11549;50.852;3.816;2023-04-01T12:37:33;11.00;99.90
22765;DHT22;11549;50.852;3.816;2023-04-01T12:40:30;10.90;99.90
22765;DHT22;11549;50.852;3.816;2023-04-01T12:43:11;10.90;99.90
22765;DHT22;11549;50.852;3.816;2023-04-01T12:45:49;11.00;99.90
22765;DHT22;11549;50.852;3.816;2023-04-01T12:51:58;11.00;99.90
22765;DHT22;11549;50.852;3.816;2023-04-01T12:58:05;11.00;99.90
22765;DHT22;11549;50.852;3.816;2023-04-01T13:00:50;10.80;99.90
22765;DHT22;11549;50.852;3.816;2023-04-01T13:03:41;10.90;99.90
22765;DHT22;11549;50.852;3.816;2023-04-01T13:06:31;11.00;99.90
22765;DHT22;11549;50.852;3.816;2023-04-01T13:09:09;11.00;99.90
22765;DHT22;11549;50.852;3.816;2023-04-01T13:11:57;11.20;99.90
22765;DHT22;11549;50.852;3.816;2023-04-01T13:14:57;11.30;99.90
22765;DHT22;11549;50.852;3.816;2023-04-01T13:17:38;11.10;99.90
22765;DHT22;11549;50.852;3.816;2023-04-01T13:20:16;11.00;99.90
22765;DHT22;11549;50.852;3.816;2023-04-01T13:23:00;11.10;99.90
22765;DHT22;11549;50.852;3.816;2023-04-01T13:25:37;11.10;99.90
22765;DHT22;11549;50.852;3.816;2023-04-01T13:28:13;11.10;99.90
22765;DHT22;11549;50.852;3.816;2023-04-01T13:30:49;11.00;99.90
22765;DHT22;11549;50.852;3.816;2023-04-01T13:33:30;11.00;99.90
22765;DHT22;11549;50.852;3.816;2023-04-01T13:36:10;10.90;99.90
22765;DHT22;11549;50.852;3.816;2023-04-01T13:38:56;10.90;99.90
22765;DHT22;11549;50.852;3.816;2023-04-01T13:41:41;10.90;99.90
22765;DHT22;11549;50.852;3.816;2023-04-01T13:44:17;10.90;99.90
22765;DHT22;11549;50.852;3.816;2023-04-01T13:47:06;10.90;99.90
22765;DHT22;11549;50.852;3.816;2023-04-01T13:49:59;11.00;99.90
22765;DHT22;11549;50.852;3.816;2023-04-01T13:52:45;10.80;99.90
22765;DHT22;11549;50.852;3.816;2023-04-01T13:55:23;10.70;99.90
22765;DHT22;11549;50.852;3.816;2023-04-01T13:58:12;10.70;99.90
22765;DHT22;11549;50.852;3.816;2023-04-01T14:00:51;10.80;99.90
22765;DHT22;11549;50.852;3.816;2023-04-01T14:03:30;11.10;99.90
22765;DHT22;11549;50.852;3.816;2023-04-01T14:06:09;11.10;99.90
22765;DHT22;11549;50.852;3.816;2023-04-01T14:09:01;10.90;99.90
22765;DHT22;11549;50.852;3.816;2023-04-01T14:11:38;10.80;99.90
22765;DHT22;11549;50.852;3.816;2023-04-01T14:14:20;10.80;99.90
22765;DHT22;11549;50.852;3.816;2023-04-01T14:17:14;10.90;99.90
22765;DHT22;11549;50.852;3.816;2023-04-01T14:19:56;11.00;99.90
22765;DHT22;11549;50.852;3.816;2023-04-01T14:22:38;11.00;99.90
22765;DHT22;11549;50.852;3.816;2023-04-01T14:25:33;11.00;99.90
22765;DHT22;11549;50.852;3.816;2023-04-01T14:28:15;11.00;99.90
22765;DHT22;11549;50.852;3.816;2023-04-01T14:33:43;10.80;99.90
22765;DHT22;11549;50.852;3.816;2023-04-01T14:36:30;10.80;99.90
22765;DHT22;11549;50.852;3.816;2023-04-01T14:39:15;10.70;99.90
22765;DHT22;11549;50.852;3.816;2023-04-01T14:41:50;10.80;99.90
22765;DHT22;11549;50.852;3.816;2023-04-01T14:44:35;10.80;99.90
22765;DHT22;11549;50.852;3.816;2023-04-01T14:47:24;10.70;99.90
22765;DHT22;11549;50.852;3.816;2023-04-01T14:50:05;10.60;99.90
22765;DHT22;11549;50.852;3.816;2023-04-01T14:52:36;10.60;99.90
22765;DHT22;11549;50.852;3.816;2023-04-01T14:55:21;10.60;99.90
22765;DHT22;11549;50.852;3.816;2023-04-01T14:58:10;10.30;99.90
22765;DHT22;11549;50.852;3.816;2023-04-01T15:00:58;10.30;99.90
22765;DHT22;11549;50.852;3.816;2023-04-01T15:03:31;10.40;99.90
22765;DHT22;11549;50.852;3.816;2023-04-01T15:06:31;10.50;99.90
22765;DHT22;11549;50.852;3.816;2023-04-01T15:09:07;10.60;99.90
22765;DHT22;11549;50.852;3.816;2023-04-01T15:11:52;10.60;99.90
22765;DHT22;11549;50.852;3.816;2023-04-01T15:14:48;10.60;99.90
22765;DHT22;11549;50.852;3.816;2023-04-01T15:17:37;10.60;99.90
22765;DHT22;11549;50.852;3.816;2023-04-01T15:23:19;10.50;99.90
22765;DHT22;11549;50.852;3.816;2023-04-01T15:26:11;10.60;99.90
22765;DHT22;11549;50.852;3.816;2023-04-01T15:28:47;10.50;99.90
22765;DHT22;11549;50.852;3.816;2023-04-01T15:31:24;10.60;99.90
22765;DHT22;11549;50.852;3.816;2023-04-01T15:34:15;10.50;99.90
22765;DHT22;11549;50.852;3.816;2023-04-01T15:36:53;10.30;99.90
22765;DHT22;11549;50.852;3.816;2023-04-01T15:39:31;10.40;99.90
22765;DHT22;11549;50.852;3.816;2023-04-01T15:42:17;10.40;99.90
22765;DHT22;11549;50.852;3.816;2023-04-01T15:44:58;10.50;99.90
22765;DHT22;11549;50.852;3.816;2023-04-01T15:47:37;10.40;99.90
22765;DHT22;11549;50.852;3.816;2023-04-01T15:50:37;10.40;99.90
22765;DHT22;11549;50.852;3.816;2023-04-01T15:53:16;10.30;99.90
22765;DHT22;11549;50.852;3.816;2023-04-01T15:55:50;10.40;99.90
22765;DHT22;11549;50.852;3.816;2023-04-01T15:58:36;10.30;99.90
22765;DHT22;11549;50.852;3.816;2023-04-01T16:01:15;10.40;99.90
22765;DHT22;11549;50.852;3.816;2023-04-01T16:03:53;10.40;99.90
22765;DHT22;11549;50.852;3.816;2023-04-01T16:09:39;10.40;99.90
22765;DHT22;11549;50.852;3.816;2023-04-01T16:12:16;10.30;99.90
22765;DHT22;11549;50.852;3.816;2023-04-01T16:14:58;10.20;99.90
22765;DHT22;11549;50.852;3.816;2023-04-01T16:17:54;10.20;99.90
22765;DHT22;11549;50.852;3.816;2023-04-01T16:20:42;10.10;99.90
22765;DHT22;11549;50.852;3.816;2023-04-01T16:23:16;10.10;99.90
22765;DHT22;11549;50.852;3.816;2023-04-01T16:25:53;10.10;99.90
22765;DHT22;11549;50.852;3.816;2023-04-01T16:28:30;10.10;99.90
22765;DHT22;11549;50.852;3.816;2023-04-01T16:31:05;10.10;99.90
22765;DHT22;11549;50.852;3.816;2023-04-01T16:33:46;10.20;99.90
22765;DHT22;11549;50.852;3.816;2023-04-01T16:36:24;10.10;99.90
22765;DHT22;11549;50.852;3.816;2023-04-01T16:39:08;10.10;99.90
22765;DHT22;11549;50.852;3.816;2023-04-01T16:41:46;10.10;99.90
22765;DHT22;11549;50.852;3.816;2023-04-01T16:44:19;10.10;99.90
22765;DHT22;11549;50.852;3.816;2023-04-01T16:46:51;9.90;99.90
22765;DHT22;11549;50.852;3.816;2023-04-01T16:49:32;9.90;99.90
22765;DHT22;11549;50.852;3.816;2023-04-01T16:52:14;10.00;99.90
22765;DHT22;11549;50.852;3.816;2023-04-01T16:54:47;10.10;99.90
22765;DHT22;11549;50.852;3.816;2023-04-01T16:57:25;10.20;99.90
22765;DHT22;11549;50.852;3.816;2023-04-01T16:59:58;10.10;99.90
22765;DHT22;11549;50.852;3.816;2023-04-01T17:02:35;10.00;99.90
22765;DHT22;11549;50.852;3.816;2023-04-01T17:05:09;9.90;99.90
22765;DHT22;11549;50.852;3.816;2023-04-01T17:07:47;10.00;99.90
22765;DHT22;11549;50.852;3.816;2023-04-01T17:10:28;10.00;99.90
22765;DHT22;11549;50.852;3.816;2023-04-01T17:13:26;10.00;99.90
22765;DHT22;11549;50.852;3.816;2023-04-01T17:16:11;9.90;99.90
22765;DHT22;11549;50.852;3.816;2023-04-01T17:18:48;9.90;99.90
22765;DHT22;11549;50.852;3.816;2023-04-01T17:21:38;9.90;99.90
22765;DHT22;11549;50.852;3.816;2023-04-01T17:24:24;10.00;99.90
22765;DHT22;11549;50.852;3.816;2023-04-01T17:27:00;9.90;99.90
22765;DHT22;11549;50.852;3.816;2023-04-01T17:29:40;9.90;99.90
22765;DHT22;11549;50.852;3.816;2023-04-01T17:32:16;9.90;99.90
22765;DHT22;11549;50.852;3.816;2023-04-01T17:34:55;10.00;99.90
22765;DHT22;11549;50.852;3.816;2023-04-01T17:37:40;10.00;99.90
22765;DHT22;11549;50.852;3.816;2023-04-01T17:40:26;9.80;99.90
22765;DHT22;11549;50.852;3.816;2023-04-01T17:43:06;9.70;99.90
22765;DHT22;11549;50.852;3.816;2023-04-01T17:45:44;9.70;99.90
22765;DHT22;11549;50.852;3.816;2023-04-01T17:48:24;9.80;99.90
22765;DHT22;11549;50.852;3.816;2023-04-01T17:51:08;9.80;99.90
22765;DHT22;11549;50.852;3.816;2023-04-01T17:53:47;9.70;99.90
22765;DHT22;11549;50.852;3.816;2023-04-01T17:56:32;9.70;99.90
22765;DHT22;11549;50.852;3.816;2023-04-01T17:59:10;9.70;99.90
22765;DHT22;11549;50.852;3.816;2023-04-01T18:01:48;9.70;99.90
22765;DHT22;11549;50.852;3.816;2023-04-01T18:04:55;9.50;99.90
22765;DHT22;11549;50.852;3.816;2023-04-01T18:10:26;9.70;99.90